createdAt,value
2023-02-25T00:00:33.032Z,1.63
2023-02-25T00:02:34.765Z,1.52
2023-02-25T00:04:36.713Z,2.05
2023-02-25T00:06:38.382Z,1.63
2023-02-25T00:08:44.120Z,1.52
2023-02-25T00:10:45.795Z,1.77
2023-02-25T00:12:47.478Z,1.60
2023-02-25T00:14:49.221Z,1.35
2023-02-25T00:16:50.946Z,1.50
2023-02-25T00:18:56.593Z,1.60
2023-02-25T00:20:59.184Z,1.92
2023-02-25T00:23:00.846Z,1.80
2023-02-25T00:25:02.806Z,1.65
2023-02-25T00:27:04.518Z,1.30
2023-02-25T00:29:06.252Z,1.63
2023-02-25T00:31:16.127Z,1.42
2023-02-25T00:33:17.753Z,1.63
2023-02-25T00:35:19.483Z,1.42
2023-02-25T00:37:21.227Z,1.58
2023-02-25T00:39:24.503Z,1.60
2023-02-25T00:41:28.327Z,1.42
2023-02-25T00:43:30.700Z,1.67
2023-02-25T00:45:32.982Z,1.67
2023-02-25T00:47:34.621Z,1.75
2023-02-25T00:49:36.505Z,1.50
2023-02-25T00:51:39.059Z,1.42
2023-02-25T00:53:41.539Z,1.50
2023-02-25T00:55:43.239Z,1.63
2023-02-25T00:57:44.993Z,1.50
2023-02-25T00:59:46.726Z,1.00
2023-02-25T01:01:48.507Z,1.60
2023-02-25T01:03:52.374Z,1.25
2023-02-25T01:05:54.200Z,1.17
2023-02-25T01:07:55.970Z,1.25
2023-02-25T01:09:57.785Z,1.40
2023-02-25T01:11:59.482Z,1.50
2023-02-25T01:14:04.496Z,1.20
2023-02-25T01:16:21.410Z,1.40
2023-02-25T01:18:24.126Z,1.00
2023-02-25T01:20:25.830Z,1.40
2023-02-25T01:22:27.508Z,1.20
2023-02-25T01:24:31.569Z,1.58
2023-02-25T01:26:37.144Z,1.48
2023-02-25T01:28:38.835Z,1.08
2023-02-25T01:30:40.543Z,1.33
2023-02-25T01:32:42.412Z,1.33
2023-02-25T01:34:44.117Z,1.25
2023-02-25T01:36:47.029Z,1.40
2023-02-25T01:38:49.824Z,1.50
2023-02-25T01:40:58.281Z,1.20
2023-02-25T01:42:59.910Z,1.20
2023-02-25T01:45:17.532Z,1.27
2023-02-25T01:47:22.044Z,1.10
2023-02-25T01:49:32.693Z,1.00
2023-02-25T01:51:36.070Z,1.23
2023-02-25T01:53:42.651Z,1.08
2023-02-25T01:55:44.563Z,0.90
2023-02-25T01:57:46.235Z,1.40
2023-02-25T01:59:50.422Z,1.33
2023-02-25T02:01:52.453Z,1.10
2023-02-25T02:03:54.704Z,1.20
2023-02-25T02:06:00.188Z,1.02
2023-02-25T02:08:02.326Z,1.00
2023-02-25T02:10:04.774Z,1.23
2023-02-25T02:12:07.223Z,1.17
2023-02-25T02:14:12.399Z,1.10
2023-02-25T02:16:43.426Z,0.95
2023-02-25T02:18:52.238Z,0.98
2023-02-25T02:21:05.652Z,1.30
2023-02-25T02:23:28.498Z,1.10
2023-02-25T02:25:57.001Z,1.02
2023-02-25T02:28:28.006Z,1.13
2023-02-25T02:31:03.463Z,0.80
2023-02-25T02:33:22.369Z,0.90
2023-02-25T02:35:30.505Z,1.15
2023-02-25T02:38:13.633Z,0.95
2023-02-25T02:40:30.317Z,1.10
2023-02-25T02:42:37.985Z,1.10
2023-02-25T02:44:52.897Z,0.90
2023-02-25T02:47:06.896Z,1.05
2023-02-25T02:49:34.402Z,0.90
2023-02-25T02:51:41.159Z,1.00
2023-02-25T02:53:55.362Z,0.98
2023-02-25T02:56:01.258Z,0.95
2023-02-25T02:58:10.553Z,1.10
2023-02-25T03:00:17.363Z,0.90
2023-02-25T03:02:34.928Z,1.00
2023-02-25T03:04:39.341Z,1.10
2023-02-25T03:06:44.713Z,0.90
2023-02-25T03:08:56.044Z,1.10
2023-02-25T03:10:57.661Z,1.15
2023-02-25T03:12:59.337Z,1.10
2023-02-25T03:15:00.991Z,1.13
2023-02-25T03:17:05.656Z,1.10
2023-02-25T03:19:21.401Z,1.10
2023-02-25T03:21:27.997Z,1.15
2023-02-25T03:23:32.525Z,1.40
2023-02-25T03:25:47.430Z,1.20
2023-02-25T03:27:53.123Z,1.10
2023-02-25T03:30:04.489Z,0.90
2023-02-25T03:32:12.703Z,1.13
2023-02-25T03:34:32.021Z,1.33
2023-02-25T03:36:59.813Z,1.02
2023-02-25T03:39:11.261Z,1.13
2023-02-25T03:41:15.159Z,1.13
2023-02-25T03:43:24.622Z,0.90
2023-02-25T03:45:26.614Z,1.00
2023-02-25T03:47:30.335Z,0.85
2023-02-25T03:49:43.587Z,1.20
2023-02-25T03:51:47.639Z,1.10
2023-02-25T03:53:50.196Z,1.17
2023-02-25T03:55:52.105Z,1.02
2023-02-25T03:57:53.762Z,1.10
2023-02-25T03:59:56.341Z,0.90
2023-02-25T04:01:59.153Z,1.08
2023-02-25T04:04:00.810Z,0.90
2023-02-25T04:06:02.468Z,0.93
2023-02-25T04:08:16.128Z,1.00
2023-02-25T04:10:18.047Z,0.80
2023-02-25T04:12:19.699Z,0.85
2023-02-25T04:14:21.353Z,1.13
2023-02-25T04:16:23.334Z,0.90
2023-02-25T04:18:26.579Z,0.98
2023-02-25T04:20:29.870Z,1.15
2023-02-25T04:22:31.597Z,0.80
2023-02-25T04:24:33.408Z,1.00
2023-02-25T04:26:36.237Z,1.17
2023-02-25T04:28:37.888Z,1.00
2023-02-25T04:30:39.609Z,1.02
2023-02-25T04:32:41.394Z,0.80
2023-02-25T04:34:43.259Z,0.80
2023-02-25T04:36:45.798Z,0.95
2023-02-25T04:38:47.398Z,0.90
2023-02-25T04:40:51.839Z,0.80
2023-02-25T04:42:53.475Z,0.75
2023-02-25T04:44:56.023Z,0.70
2023-02-25T04:46:57.679Z,0.82
2023-02-25T04:48:59.406Z,0.88
2023-02-25T04:51:02.183Z,1.20
2023-02-25T04:53:04.074Z,1.00
2023-02-25T04:55:06.526Z,0.63
2023-02-25T04:57:09.211Z,0.98
2023-02-25T04:59:12.050Z,1.02
2023-02-25T05:01:14.373Z,1.25
2023-02-25T05:03:16.028Z,0.98
2023-02-25T05:05:17.847Z,0.70
2023-02-25T05:07:19.436Z,1.73
2023-02-25T05:09:21.317Z,1.10
2023-02-25T05:11:23.328Z,1.20
2023-02-25T05:13:25.060Z,1.30
2023-02-25T05:15:26.954Z,1.10
2023-02-25T05:17:28.613Z,1.10
2023-02-25T05:19:30.338Z,1.10
2023-02-25T05:21:32.920Z,1.48
2023-02-25T05:23:34.584Z,0.80
2023-02-25T05:25:41.258Z,1.00
2023-02-25T05:27:42.923Z,1.50
2023-02-25T05:29:44.593Z,1.35
2023-02-25T05:31:47.088Z,1.38
2023-02-25T05:33:48.881Z,1.15
2023-02-25T05:35:51.314Z,1.42
2023-02-25T05:37:53.004Z,1.00
2023-02-25T05:39:54.737Z,1.40
2023-02-25T05:41:56.358Z,1.25
2023-02-25T05:43:58.303Z,1.10
2023-02-25T05:46:04.845Z,1.10
2023-02-25T05:48:06.653Z,0.88
2023-02-25T05:50:09.016Z,1.35
2023-02-25T05:52:12.730Z,1.10
2023-02-25T05:54:14.368Z,1.00
2023-02-25T05:56:28.847Z,1.02
2023-02-25T05:58:32.115Z,1.15
2023-02-25T06:00:33.987Z,2.80
2023-02-25T06:02:36.847Z,1.60
2023-02-25T06:04:38.523Z,1.10
2023-02-25T06:06:40.152Z,1.83
2023-02-25T06:08:44.680Z,1.92
2023-02-25T06:10:46.356Z,1.42
2023-02-25T06:12:48.032Z,1.50
2023-02-25T06:14:49.734Z,1.75
2023-02-25T06:16:51.672Z,2.17
2023-02-25T06:18:53.757Z,1.25
2023-02-25T06:20:55.371Z,1.58
2023-02-25T06:22:57.062Z,1.73
2023-02-25T06:24:58.891Z,2.25
2023-02-25T06:27:00.508Z,1.60
2023-02-25T06:29:02.188Z,2.50
2023-02-25T06:31:12.224Z,1.55
2023-02-25T06:33:13.886Z,2.10
2023-02-25T06:35:15.792Z,1.73
2023-02-25T06:37:17.435Z,1.70
2023-02-25T06:39:19.113Z,2.13
2023-02-25T06:41:22.317Z,1.60
2023-02-25T06:43:24.002Z,2.03
2023-02-25T06:45:25.967Z,1.50
2023-02-25T06:47:27.650Z,2.08
2023-02-25T06:49:30.489Z,2.10
2023-02-25T06:51:32.232Z,2.20
2023-02-25T06:53:33.875Z,2.20
2023-02-25T06:55:37.937Z,2.95
2023-02-25T06:57:39.586Z,2.40
2023-02-25T06:59:41.275Z,1.85
2023-02-25T07:01:42.950Z,2.05
2023-02-25T07:03:44.647Z,2.60
2023-02-25T07:05:46.380Z,2.28
2023-02-25T07:07:48.039Z,2.00
2023-02-25T07:09:49.666Z,2.15
2023-02-25T07:11:51.330Z,1.83
2023-02-25T07:13:53.033Z,3.03
2023-02-25T07:15:54.703Z,3.45
2023-02-25T07:17:56.386Z,3.85
2023-02-25T07:19:58.039Z,4.30
2023-02-25T07:21:59.669Z,4.93
2023-02-25T07:24:01.408Z,4.88
2023-02-25T07:26:05.045Z,4.75
2023-02-25T07:28:06.740Z,5.75
2023-02-25T07:30:09.538Z,5.75
2023-02-25T07:32:11.388Z,4.72
2023-02-25T07:34:14.570Z,5.47
2023-02-25T07:36:17.097Z,5.38
2023-02-25T07:38:18.810Z,6.35
2023-02-25T07:40:20.428Z,6.35
2023-02-25T07:42:22.062Z,4.88
2023-02-25T07:44:23.956Z,3.33
2023-02-25T07:46:26.271Z,4.75
2023-02-25T07:48:28.773Z,5.57
2023-02-25T07:50:30.358Z,5.35
2023-02-25T07:52:32.058Z,4.60
2023-02-25T07:54:33.667Z,5.63
2023-02-25T07:56:35.304Z,5.10
2023-02-25T07:58:37.429Z,5.07
2023-02-25T08:00:40.893Z,4.32
2023-02-25T08:02:44.323Z,4.65
2023-02-25T08:04:46.170Z,4.80
2023-02-25T08:06:47.891Z,4.30
2023-02-25T08:08:52.196Z,5.03
2023-02-25T08:10:53.955Z,5.25
2023-02-25T08:12:55.590Z,4.63
2023-02-25T08:15:00.144Z,4.65
2023-02-25T08:17:01.827Z,4.57
2023-02-25T08:19:05.628Z,3.15
2023-02-25T08:21:07.720Z,3.13
2023-02-25T08:23:09.464Z,4.53
2023-02-25T08:25:11.298Z,4.38
2023-02-25T08:27:12.976Z,3.88
2023-02-25T08:29:15.220Z,4.10
2023-02-25T08:31:18.461Z,4.22
2023-02-25T08:33:20.696Z,4.43
2023-02-25T08:35:22.663Z,4.15
2023-02-25T08:37:25.614Z,3.97
2023-02-25T08:39:27.365Z,4.72
2023-02-25T08:41:29.799Z,5.68
2023-02-25T08:43:32.374Z,4.90
2023-02-25T08:45:34.203Z,3.25
2023-02-25T08:47:36.419Z,3.47
2023-02-25T08:49:38.896Z,5.30
2023-02-25T08:51:40.792Z,4.88
2023-02-25T08:53:42.516Z,4.47
2023-02-25T08:55:44.139Z,4.53
2023-02-25T08:57:45.811Z,3.90
2023-02-25T08:59:47.545Z,4.50
2023-02-25T09:01:50.360Z,4.15
2023-02-25T09:03:55.013Z,4.32
2023-02-25T09:05:57.167Z,3.83
2023-02-25T09:07:59.074Z,3.80
2023-02-25T09:10:00.782Z,4.75
2023-02-25T09:12:05.121Z,3.83
2023-02-25T09:14:07.082Z,4.13
2023-02-25T09:16:09.022Z,4.82
2023-02-25T09:18:11.799Z,5.18
2023-02-25T09:20:13.528Z,4.80
2023-02-25T09:22:15.122Z,4.53
2023-02-25T09:24:17.533Z,4.70
2023-02-25T09:26:20.951Z,5.78
2023-02-25T09:28:24.509Z,5.53
2023-02-25T09:30:26.700Z,5.85
2023-02-25T09:32:28.536Z,6.10
2023-02-25T09:34:30.306Z,11.93
2023-02-25T09:36:32.423Z,11.95
2023-02-25T09:38:35.457Z,13.82
2023-02-25T09:40:38.176Z,14.18
2023-02-25T09:42:53.502Z,37.08
2023-02-25T09:45:01.654Z,69.45
2023-02-25T09:47:09.757Z,28.33
2023-02-25T09:49:45.614Z,16.20
2023-02-25T09:51:56.649Z,13.27
2023-02-25T09:56:21.609Z,13.98
2023-02-25T09:58:35.526Z,9.18
2023-02-25T10:01:01.869Z,10.27
2023-02-25T10:03:22.900Z,11.00
2023-02-25T10:06:02.863Z,10.68
2023-02-25T10:08:23.438Z,8.25
2023-02-25T10:10:55.788Z,9.25
2023-02-25T10:13:06.936Z,8.23
2023-02-25T10:17:46.550Z,7.70
2023-02-25T10:20:38.546Z,6.97
2023-02-25T10:23:06.325Z,8.02
2023-02-25T10:25:20.497Z,6.80
2023-02-25T10:27:31.889Z,7.32
2023-02-25T10:29:40.776Z,6.85
2023-02-25T10:31:46.604Z,6.00
2023-02-25T10:33:50.648Z,6.13
2023-02-25T10:36:00.701Z,5.00
2023-02-25T10:38:02.390Z,5.72
2023-02-25T10:40:10.933Z,4.90
2023-02-25T10:42:12.894Z,5.32
2023-02-25T10:44:14.691Z,5.10
2023-02-25T10:46:31.487Z,4.80
2023-02-25T10:48:35.823Z,5.07
2023-02-25T10:50:45.390Z,7.55
2023-02-25T10:53:02.847Z,14.77
2023-02-25T10:55:04.766Z,22.05
2023-02-25T10:57:16.651Z,23.85
2023-02-25T10:59:31.813Z,65.85
2023-02-25T11:01:40.117Z,63.88
2023-02-25T11:04:00.728Z,67.57
2023-02-25T11:06:31.728Z,92.43
2023-02-25T11:08:33.824Z,88.72
2023-02-25T11:10:35.506Z,86.38
2023-02-25T11:12:49.144Z,83.82
2023-02-25T11:14:50.811Z,96.72
2023-02-25T11:17:02.231Z,102.82
2023-02-25T11:19:26.545Z,94.43
2023-02-25T11:21:37.782Z,99.53
2023-02-25T11:23:42.512Z,103.05
2023-02-25T11:25:44.210Z,100.90
2023-02-25T11:27:54.738Z,95.88
2023-02-25T11:30:04.930Z,90.03
2023-02-25T11:32:17.121Z,87.63
2023-02-25T11:34:31.382Z,79.82
2023-02-25T11:36:38.884Z,79.22
2023-02-25T11:38:42.397Z,79.32
2023-02-25T11:40:45.317Z,69.55
2023-02-25T11:43:05.177Z,70.00
2023-02-25T11:45:16.812Z,67.03
2023-02-25T11:47:33.642Z,70.90
2023-02-25T11:49:42.626Z,65.47
2023-02-25T11:52:17.858Z,72.07
2023-02-25T11:54:39.522Z,69.38
2023-02-25T11:56:48.560Z,63.63
2023-02-25T11:58:57.949Z,64.88
2023-02-25T12:01:04.720Z,59.72
2023-02-25T12:03:38.014Z,60.63
2023-02-25T12:05:54.347Z,56.13
2023-02-25T12:08:34.507Z,49.95
2023-02-25T12:10:59.180Z,52.53
2023-02-25T12:13:16.398Z,50.72
2023-02-25T12:15:48.997Z,19.08
2023-02-25T12:18:26.410Z,10.70
2023-02-25T12:20:46.518Z,15.60
2023-02-25T12:23:18.793Z,28.10
2023-02-25T12:25:26.423Z,32.20
2023-02-25T12:27:49.305Z,33.25
2023-02-25T12:30:25.165Z,31.80
2023-02-25T12:32:57.419Z,29.65
2023-02-25T12:35:26.319Z,30.88
2023-02-25T12:37:31.005Z,29.15
2023-02-25T12:39:47.715Z,29.23
2023-02-25T12:42:04.049Z,27.10
2023-02-25T12:44:54.002Z,25.60
2023-02-25T12:47:23.503Z,25.50
2023-02-25T12:49:33.714Z,24.30
2023-02-25T12:51:53.683Z,24.10
2023-02-25T12:54:28.318Z,22.80
2023-02-25T12:56:54.202Z,24.10
2023-02-25T12:59:10.363Z,20.83
2023-02-25T13:01:34.121Z,20.85
2023-02-25T13:03:44.986Z,19.25
2023-02-25T13:06:03.624Z,18.77
2023-02-25T13:08:27.450Z,17.98
2023-02-25T13:10:40.049Z,17.98
2023-02-25T13:12:53.143Z,16.98
2023-02-25T13:15:20.364Z,16.20
2023-02-25T13:17:55.804Z,15.93
2023-02-25T13:20:38.472Z,17.60
2023-02-25T13:23:04.937Z,14.63
2023-02-25T13:25:38.898Z,13.80
2023-02-25T13:28:01.780Z,14.07
2023-02-25T13:30:26.678Z,13.63
2023-02-25T13:33:11.418Z,12.55
2023-02-25T13:35:32.216Z,12.23
2023-02-25T13:38:08.863Z,12.00
2023-02-25T13:40:26.934Z,10.80
2023-02-25T13:42:34.720Z,11.00
2023-02-25T13:44:42.319Z,11.15
2023-02-25T13:46:53.096Z,11.63
2023-02-25T13:48:57.893Z,10.90
2023-02-25T13:51:24.701Z,12.25
2023-02-25T13:53:45.529Z,12.90
2023-02-25T13:56:10.300Z,14.65
2023-02-25T13:58:45.326Z,13.30
2023-02-25T14:01:24.895Z,13.88
2023-02-25T14:03:59.480Z,13.77
2023-02-25T14:06:35.673Z,12.13
2023-02-25T14:09:11.331Z,11.75
2023-02-25T14:12:06.416Z,11.77
2023-02-25T14:14:32.935Z,11.15
2023-02-25T14:16:45.552Z,10.57
2023-02-25T14:19:00.973Z,10.32
2023-02-25T14:21:39.528Z,9.98
2023-02-25T14:24:02.651Z,8.93
2023-02-25T14:26:26.790Z,9.50
2023-02-25T14:28:40.925Z,8.95
2023-02-25T14:31:20.564Z,8.95
2023-02-25T14:33:36.229Z,8.95
2023-02-25T14:36:16.552Z,7.57
2023-02-25T14:38:27.591Z,8.25
2023-02-25T14:41:01.787Z,7.22
2023-02-25T14:43:26.716Z,6.93
2023-02-25T14:45:40.001Z,6.70
2023-02-25T14:47:47.704Z,7.70
2023-02-25T14:50:03.063Z,5.75
2023-02-25T14:52:34.737Z,6.70
2023-02-25T14:55:25.428Z,6.15
2023-02-25T14:57:45.854Z,6.75
2023-02-25T15:00:22.842Z,5.57
2023-02-25T15:02:39.934Z,6.05
2023-02-25T15:04:59.797Z,5.53
2023-02-25T15:07:09.134Z,5.65
2023-02-25T15:09:22.831Z,5.05
2023-02-25T15:11:56.739Z,5.05
2023-02-25T15:14:39.214Z,4.90
2023-02-25T15:16:52.290Z,5.28
2023-02-25T15:19:21.695Z,4.22
2023-02-25T15:21:32.616Z,4.93
2023-02-25T15:23:50.989Z,4.50
2023-02-25T15:26:24.873Z,4.32
2023-02-25T15:28:29.524Z,3.92
2023-02-25T15:31:04.723Z,3.92
2023-02-25T15:33:23.138Z,4.10
2023-02-25T15:35:48.003Z,4.28
2023-02-25T15:37:55.770Z,4.25
2023-02-25T15:40:15.946Z,3.88
2023-02-25T15:42:51.601Z,3.35
2023-02-25T15:44:54.564Z,3.60
2023-02-25T15:47:18.198Z,3.08
2023-02-25T15:49:32.999Z,3.30
2023-02-25T15:51:53.537Z,3.58
2023-02-25T15:53:55.435Z,3.60
2023-02-25T15:56:06.518Z,2.90
2023-02-25T16:00:47.372Z,3.10
2023-02-25T16:02:58.390Z,3.25
2023-02-25T16:07:07.396Z,2.88
2023-02-25T16:09:17.155Z,2.42
2023-02-25T16:11:42.018Z,2.67
2023-02-25T16:13:43.855Z,2.85
2023-02-25T16:15:51.295Z,2.60
2023-02-25T16:17:56.061Z,2.42
2023-02-25T16:20:24.617Z,2.47
2023-02-25T16:22:28.662Z,2.42
2023-02-25T16:24:30.965Z,2.38
2023-02-25T16:27:03.233Z,2.70
2023-02-25T16:29:22.667Z,3.13
2023-02-25T16:31:36.623Z,2.90
2023-02-25T16:33:57.034Z,3.03
2023-02-25T16:36:20.342Z,2.92
2023-02-25T16:38:38.283Z,2.50
2023-02-25T16:40:42.639Z,2.78
2023-02-25T16:42:45.581Z,2.25
2023-02-25T16:45:04.550Z,2.75
2023-02-25T16:47:26.809Z,1.90
2023-02-25T16:49:39.869Z,2.30
2023-02-25T16:51:44.932Z,2.30
2023-02-25T16:53:49.659Z,2.28
2023-02-25T16:55:58.607Z,2.30
2023-02-25T16:58:24.493Z,2.42
2023-02-25T17:00:26.232Z,2.30
2023-02-25T17:02:27.947Z,1.95
2023-02-25T17:04:36.653Z,1.70
2023-02-25T17:06:38.450Z,2.05
2023-02-25T17:08:47.365Z,1.90
2023-02-25T17:10:53.150Z,2.25
2023-02-25T17:12:55.460Z,1.70
2023-02-25T17:15:00.358Z,1.90
2023-02-25T17:17:02.067Z,1.90
2023-02-25T17:19:08.605Z,1.95
2023-02-25T17:21:27.198Z,2.90
2023-02-25T17:23:29.530Z,1.80
2023-02-25T17:25:37.223Z,2.53
2023-02-25T17:27:40.744Z,2.03
2023-02-25T17:29:43.208Z,2.35
2023-02-25T17:31:55.806Z,2.50
2023-02-25T17:34:03.926Z,2.15
2023-02-25T17:36:11.197Z,1.83
2023-02-25T17:38:18.000Z,2.15
2023-02-25T17:40:24.157Z,2.13
2023-02-25T17:42:35.855Z,2.20
2023-02-25T17:44:42.410Z,2.10
2023-02-25T17:46:44.626Z,1.92
2023-02-25T17:48:55.466Z,1.83
2023-02-25T17:51:01.253Z,1.95
2023-02-25T17:53:02.903Z,1.65
2023-02-25T17:55:19.931Z,1.90
2023-02-25T17:57:24.502Z,1.63
2023-02-25T17:59:41.537Z,2.15
2023-02-25T18:01:55.460Z,1.80
2023-02-25T18:03:59.937Z,1.85
2023-02-25T18:06:02.734Z,1.77
2023-02-25T18:08:18.644Z,2.17
2023-02-25T18:10:23.037Z,1.90
2023-02-25T18:12:28.964Z,1.85
2023-02-25T18:14:38.147Z,1.60
2023-02-25T18:16:42.681Z,1.55
2023-02-25T18:18:49.161Z,2.20
2023-02-25T18:20:57.842Z,2.15
2023-02-25T18:23:27.609Z,1.90
2023-02-25T18:25:29.248Z,1.67
2023-02-25T18:27:32.725Z,1.63
2023-02-25T18:29:34.793Z,2.03
2023-02-25T18:31:36.422Z,1.73
2023-02-25T18:33:38.141Z,1.58
2023-02-25T18:35:43.119Z,1.85
2023-02-25T18:37:49.771Z,1.50
2023-02-25T18:39:51.623Z,1.48
2023-02-25T18:41:53.393Z,1.55
2023-02-25T18:43:55.015Z,1.67
2023-02-25T18:45:57.223Z,1.50
2023-02-25T18:48:00.765Z,1.65
2023-02-25T18:50:02.493Z,1.45
2023-02-25T18:52:04.213Z,2.05
2023-02-25T18:54:06.020Z,1.10
2023-02-25T18:56:08.634Z,1.90
2023-02-25T18:58:15.111Z,1.20
2023-02-25T19:00:20.280Z,1.45
2023-02-25T19:02:29.978Z,1.33
2023-02-25T19:04:31.682Z,1.17
2023-02-25T19:06:33.946Z,1.20
2023-02-25T19:08:35.566Z,1.60
2023-02-25T19:10:37.264Z,1.50
2023-02-25T19:12:38.920Z,1.40
2023-02-25T19:14:42.717Z,1.23
2023-02-25T19:16:44.385Z,0.98
2023-02-25T19:18:47.322Z,1.33
2023-02-25T19:20:49.152Z,1.30
2023-02-25T19:22:53.090Z,1.33
2023-02-25T19:24:54.756Z,1.20
2023-02-25T19:26:59.492Z,1.15
2023-02-25T19:29:01.104Z,1.30
2023-02-25T19:31:05.763Z,1.17
2023-02-25T19:33:09.817Z,1.15
2023-02-25T19:35:11.834Z,1.63
2023-02-25T19:37:15.680Z,1.45
2023-02-25T19:39:17.405Z,1.10
2023-02-25T19:41:19.051Z,1.30
2023-02-25T19:43:20.746Z,1.10
2023-02-25T19:45:24.974Z,1.02
2023-02-25T19:47:26.607Z,1.30
2023-02-25T19:49:28.822Z,1.17
2023-02-25T19:51:30.471Z,1.23
2023-02-25T19:53:32.200Z,1.30
2023-02-25T19:55:33.842Z,1.30
2023-02-25T19:57:35.443Z,1.30
2023-02-25T19:59:37.422Z,1.17
2023-02-25T20:01:40.173Z,1.00
2023-02-25T20:03:41.873Z,1.10
2023-02-25T20:05:44.598Z,0.93
2023-02-25T20:07:46.318Z,1.10
2023-02-25T20:09:47.975Z,1.15
2023-02-25T20:11:51.195Z,1.17
2023-02-25T20:13:52.929Z,1.23
2023-02-25T20:16:01.670Z,1.20
2023-02-25T20:18:03.492Z,1.27
2023-02-25T20:20:08.381Z,0.98
2023-02-25T20:22:10.166Z,1.30
2023-02-25T20:24:11.973Z,1.00
2023-02-25T20:26:15.164Z,1.08
2023-02-25T20:28:16.934Z,1.23
2023-02-25T20:30:18.825Z,1.20
2023-02-25T20:32:21.023Z,1.10
2023-02-25T20:34:26.215Z,1.00
2023-02-25T20:36:31.085Z,1.33
2023-02-25T20:38:38.059Z,1.10
2023-02-25T20:40:39.971Z,1.08
2023-02-25T20:42:41.719Z,1.23
2023-02-25T20:44:43.608Z,1.00
2023-02-25T20:46:45.974Z,1.08
2023-02-25T20:48:47.714Z,1.27
2023-02-25T20:50:49.608Z,0.93
2023-02-25T20:52:51.391Z,0.95
2023-02-25T20:54:53.871Z,1.10
2023-02-25T20:56:55.664Z,1.00
2023-02-25T20:58:57.636Z,1.27
2023-02-25T21:00:59.268Z,1.13
2023-02-25T21:03:00.902Z,1.02
2023-02-25T21:05:02.670Z,0.95
2023-02-25T21:07:04.547Z,1.00
2023-02-25T21:09:07.408Z,1.08
2023-02-25T21:11:09.056Z,1.00
2023-02-25T21:13:10.961Z,1.08
2023-02-25T21:15:12.616Z,1.33
2023-02-25T21:17:14.269Z,1.08
2023-02-25T21:19:15.927Z,1.00
2023-02-25T21:21:20.145Z,1.00
2023-02-25T21:23:21.787Z,0.80
2023-02-25T21:25:23.401Z,0.90
2023-02-25T21:27:25.756Z,1.00
2023-02-25T21:29:27.471Z,0.90
2023-02-25T21:31:29.216Z,0.90
2023-02-25T21:33:30.995Z,0.70
2023-02-25T21:35:32.607Z,1.10
2023-02-25T21:37:34.254Z,0.95
2023-02-25T21:39:35.902Z,1.10
2023-02-25T21:41:39.236Z,1.33
2023-02-25T21:43:42.635Z,1.05
2023-02-25T21:45:58.633Z,1.20
2023-02-25T21:48:00.345Z,1.00
2023-02-25T21:50:02.030Z,0.90
2023-02-25T21:52:03.988Z,1.23
2023-02-25T21:54:06.034Z,1.20
2023-02-25T21:56:14.624Z,0.80
2023-02-25T21:58:16.293Z,0.90
2023-02-25T22:00:18.396Z,1.00
2023-02-25T22:02:20.182Z,1.15
2023-02-25T22:04:21.838Z,0.90
2023-02-25T22:06:25.082Z,1.08
2023-02-25T22:08:26.892Z,1.00
2023-02-25T22:10:28.642Z,0.90
2023-02-25T22:12:30.306Z,1.10
2023-02-25T22:14:31.970Z,1.20
2023-02-25T22:16:34.547Z,0.90
2023-02-25T22:18:36.945Z,0.75
2023-02-25T22:20:38.578Z,0.80
2023-02-25T22:22:40.221Z,0.90
2023-02-25T22:24:41.823Z,0.95
2023-02-25T22:26:45.685Z,0.77
2023-02-25T22:28:47.880Z,0.80
2023-02-25T22:30:49.597Z,0.80
2023-02-25T22:32:51.358Z,0.90
2023-02-25T22:34:53.092Z,1.00
2023-02-25T22:36:54.758Z,1.10
2023-02-25T22:38:56.572Z,0.80
2023-02-25T22:40:59.162Z,0.90
2023-02-25T22:43:00.830Z,0.80
2023-02-25T22:45:02.533Z,1.02
2023-02-25T22:47:04.301Z,1.20
2023-02-25T22:49:07.490Z,0.90
2023-02-25T22:51:10.241Z,0.82
2023-02-25T22:53:12.013Z,0.93
2023-02-25T22:55:13.662Z,1.02
2023-02-25T22:57:15.295Z,1.00
2023-02-25T22:59:17.525Z,0.75
2023-02-25T23:01:21.257Z,0.98
2023-02-25T23:03:23.525Z,0.70
2023-02-25T23:05:25.128Z,0.88
2023-02-25T23:07:26.945Z,0.90
2023-02-25T23:09:28.542Z,1.00
2023-02-25T23:11:33.855Z,0.90
2023-02-25T23:13:35.737Z,0.90
2023-02-25T23:15:39.958Z,0.77
2023-02-25T23:17:41.946Z,0.98
2023-02-25T23:19:43.568Z,1.02
2023-02-25T23:21:45.829Z,0.88
2023-02-25T23:23:50.525Z,0.88
2023-02-25T23:25:54.242Z,0.90
2023-02-25T23:27:57.481Z,0.93
2023-02-25T23:29:59.135Z,0.80
2023-02-25T23:32:00.881Z,0.73
2023-02-25T23:34:08.878Z,0.85
2023-02-25T23:36:11.256Z,0.70
2023-02-25T23:38:13.125Z,0.80
2023-02-25T23:40:15.214Z,0.80
2023-02-25T23:42:16.918Z,1.00
2023-02-25T23:44:18.566Z,0.93
2023-02-25T23:46:20.951Z,0.80
2023-02-25T23:48:22.809Z,0.63
2023-02-25T23:50:25.225Z,0.88
2023-02-25T23:52:26.949Z,0.77
2023-02-25T23:54:28.593Z,0.88
2023-02-25T23:56:31.579Z,0.80
2023-02-25T23:58:33.690Z,0.70
